Time;durP1;ratioP1;P1;durP2;ratioP2;P2;SDS_P1;SDS_P2;PMS_P1;PMS_P2;Temp;Humidity;BMP_temperature;BMP_pressure;BME280_temperature;BME280_humidity;BME280_pressure;Samples;Min_cycle;Max_cycle;Signal;HPM_P1;HPM_P2
2022/10/05 00:01:35;;;;;;;15.67;11.20;;;5.60;99.90;;;;;;4806183;29;20213;-77
2022/10/05 00:04:15;;;;;;;16.03;12.07;;;5.60;99.90;;;;;;4805158;29;20667;-76
2022/10/05 00:06:51;;;;;;;13.73;10.57;;;5.60;99.90;;;;;;4805928;29;20284;-76
2022/10/05 00:09:22;;;;;;;12.93;9.97;;;5.50;99.90;;;;;;4805607;29;20617;-76
2022/10/05 00:11:58;;;;;;;15.90;10.03;;;5.50;99.90;;;;;;4805275;29;20217;-75
2022/10/05 00:14:29;;;;;;;15.13;10.23;;;5.50;99.90;;;;;;4805541;29;20541;-75
2022/10/05 00:16:57;;;;;;;12.30;9.87;;;5.50;99.90;;;;;;4805565;29;20225;-76
2022/10/05 00:19:33;;;;;;;14.97;9.60;;;5.50;99.90;;;;;;4805310;29;20228;-76
2022/10/05 00:22:11;;;;;;;12.70;9.43;;;5.40;99.90;;;;;;4793259;29;20209;-74
2022/10/05 00:24:44;;;;;;;13.17;9.90;;;5.40;99.90;;;;;;4787551;30;20206;-76
2022/10/05 00:27:19;;;;;;;12.20;9.27;;;5.40;99.90;;;;;;4787494;30;20225;-78
2022/10/05 00:29:48;;;;;;;14.30;9.07;;;5.40;99.90;;;;;;4787797;29;20217;-78
2022/10/05 00:32:17;;;;;;;11.20;9.20;;;5.40;99.90;;;;;;4805430;29;20223;-76
2022/10/05 00:34:47;;;;;;;12.43;8.63;;;5.40;99.90;;;;;;4805288;29;20217;-78
2022/10/05 00:37:17;;;;;;;9.93;8.73;;;5.40;99.90;;;;;;4805319;29;20231;-78
2022/10/05 00:39:46;;;;;;;11.27;8.17;;;5.30;99.90;;;;;;4805058;29;20746;-75
2022/10/05 00:42:40;;;;;;;10.50;8.73;;;5.30;99.90;;;;;;4804692;29;20223;-77
2022/10/05 00:45:15;;;;;;;11.17;8.60;;;5.30;99.90;;;;;;4804850;29;20231;-77
2022/10/05 00:47:52;;;;;;;9.83;8.03;;;5.30;99.90;;;;;;4805138;29;20208;-78
2022/10/05 00:50:38;;;;;;;9.40;8.00;;;5.20;99.90;;;;;;4804450;29;20209;-79
2022/10/05 00:53:16;;;;;;;12.97;8.43;;;5.20;99.90;;;;;;4808198;29;20216;-77
2022/10/05 00:55:55;;;;;;;11.37;7.97;;;5.20;99.90;;;;;;4808634;29;20240;-78
2022/10/05 00:58:31;;;;;;;9.53;8.00;;;5.20;99.90;;;;;;4808691;29;20558;-79
2022/10/05 01:01:04;;;;;;;10.00;7.83;;;5.20;99.90;;;;;;4808334;29;20201;-77
2022/10/05 01:03:39;;;;;;;11.63;8.47;;;5.20;99.90;;;;;;4808249;29;20223;-78
2022/10/05 01:06:17;;;;;;;13.53;8.43;;;5.20;99.90;;;;;;4808131;29;20209;-78
2022/10/05 01:08:56;;;;;;;9.33;8.03;;;5.20;99.90;;;;;;4808196;29;20240;-78
2022/10/05 01:11:30;;;;;;;12.17;8.63;;;5.20;99.90;;;;;;4808281;29;20621;-78
2022/10/05 01:14:12;;;;;;;9.87;7.43;;;5.20;99.90;;;;;;4807633;29;20281;-78
2022/10/05 01:16:50;;;;;;;10.80;8.50;;;5.20;99.90;;;;;;4808203;29;20278;-78
2022/10/05 01:19:48;;;;;;;9.53;7.57;;;5.10;99.90;;;;;;4808185;29;20265;-78
2022/10/05 01:22:32;;;;;;;10.20;7.80;;;5.20;99.90;;;;;;4807650;29;20202;-78
2022/10/05 01:25:17;;;;;;;11.23;8.90;;;5.10;99.90;;;;;;4807981;29;20219;-77
2022/10/05 01:28:01;;;;;;;12.30;8.33;;;5.20;99.90;;;;;;4807974;29;20213;-77
2022/10/05 01:30:36;;;;;;;10.73;8.30;;;5.20;99.90;;;;;;4807382;29;20205;-78
2022/10/05 01:33:16;;;;;;;9.73;8.10;;;5.20;99.90;;;;;;4807948;29;20197;-76
2022/10/05 01:35:55;;;;;;;11.43;8.30;;;5.20;99.90;;;;;;4808071;29;20239;-78
2022/10/05 01:38:37;;;;;;;12.30;8.67;;;5.30;99.90;;;;;;4807858;29;20224;-78
2022/10/05 01:41:18;;;;;;;11.63;7.70;;;5.30;99.90;;;;;;4807160;29;20216;-74
2022/10/05 01:43:51;;;;;;;8.80;7.90;;;5.30;99.90;;;;;;4807442;29;20687;-77
2022/10/05 01:46:30;;;;;;;13.30;9.40;;;5.30;99.90;;;;;;4808555;29;20213;-77
2022/10/05 01:49:23;;;;;;;9.33;7.80;;;5.40;99.90;;;;;;4808414;29;20201;-74
2022/10/05 01:52:04;;;;;;;13.77;9.93;;;5.40;99.90;;;;;;4808191;29;20200;-77
2022/10/05 01:54:42;;;;;;;12.03;8.90;;;5.40;99.90;;;;;;4807047;29;20216;-78
2022/10/05 01:57:26;;;;;;;10.30;8.30;;;5.40;99.90;;;;;;4807708;29;20298;-79
2022/10/05 02:00:07;;;;;;;12.10;9.17;;;5.40;99.90;;;;;;4811981;29;20200;-77
2022/10/05 02:02:41;;;;;;;11.43;7.93;;;5.40;99.90;;;;;;4821942;29;20246;-77
2022/10/05 02:05:17;;;;;;;10.33;8.10;;;5.50;99.90;;;;;;4806879;29;20291;-78
2022/10/05 02:07:59;;;;;;;10.50;8.37;;;5.40;99.90;;;;;;4807391;29;20219;-80
2022/10/05 02:10:31;;;;;;;10.70;8.23;;;5.40;99.90;;;;;;4807322;29;20217;-78
2022/10/05 02:13:03;;;;;;;13.73;8.83;;;5.40;99.90;;;;;;4806939;29;20217;-78
2022/10/05 02:15:38;;;;;;;12.30;8.27;;;5.40;99.90;;;;;;4807356;29;20201;-78
2022/10/05 02:18:12;;;;;;;9.67;8.57;;;5.40;99.90;;;;;;4807012;29;20236;-79
2022/10/05 02:20:44;;;;;;;10.67;8.67;;;5.40;99.90;;;;;;4806883;29;20227;-78
2022/10/05 02:23:22;;;;;;;10.00;8.00;;;5.50;99.90;;;;;;4806895;29;20684;-78
2022/10/05 02:25:52;;;;;;;8.90;7.93;;;5.40;99.90;;;;;;4806986;29;20208;-78
2022/10/05 02:28:27;;;;;;;12.07;9.30;;;5.40;99.90;;;;;;4807289;29;20223;-76
2022/10/05 02:31:03;;;;;;;12.53;9.33;;;5.50;99.90;;;;;;4806733;29;20217;-78
2022/10/05 02:33:33;;;;;;;11.80;8.87;;;5.50;99.90;;;;;;4807188;29;20258;-78
2022/10/05 02:36:10;;;;;;;11.90;8.93;;;5.50;99.90;;;;;;4806986;29;20220;-77
2022/10/05 02:38:58;;;;;;;11.77;8.90;;;5.60;99.90;;;;;;4806468;29;20328;-78
2022/10/05 02:41:37;;;;;;;12.70;8.67;;;5.60;99.90;;;;;;4806921;29;20213;-77
2022/10/05 02:44:13;;;;;;;11.27;8.73;;;5.60;99.90;;;;;;4806526;29;20603;-78
2022/10/05 02:46:47;;;;;;;10.37;8.20;;;5.60;99.90;;;;;;4806975;29;20559;-78
2022/10/05 02:49:30;;;;;;;10.83;8.30;;;5.60;99.90;;;;;;4805974;29;20221;-77
2022/10/05 02:52:04;;;;;;;11.03;8.37;;;5.60;99.90;;;;;;4806976;29;20614;-78
2022/10/05 02:54:43;;;;;;;10.53;8.30;;;5.70;99.90;;;;;;4806487;29;20205;-78
2022/10/05 02:57:22;;;;;;;10.40;7.77;;;5.60;99.90;;;;;;4806273;29;20567;-78
2022/10/05 02:59:58;;;;;;;9.50;7.87;;;5.70;99.90;;;;;;4811007;29;20213;-78
2022/10/05 03:02:33;;;;;;;16.20;7.77;;;5.60;99.90;;;;;;4801612;29;20212;-78
2022/10/05 03:05:07;;;;;;;14.43;7.97;;;5.50;99.90;;;;;;4808537;29;20308;-78
2022/10/05 03:07:43;;;;;;;10.57;7.20;;;5.50;99.90;;;;;;4815875;29;20219;-78
2022/10/05 03:10:17;;;;;;;10.77;7.67;;;5.50;99.90;;;;;;4815449;29;20205;-78
2022/10/05 03:12:54;;;;;;;9.70;7.03;;;5.40;99.90;;;;;;4813406;29;20584;-78
2022/10/05 03:15:52;;;;;;;10.00;7.00;;;5.40;99.90;;;;;;4806292;29;20224;-78
2022/10/05 03:18:32;;;;;;;10.07;7.53;;;5.40;99.90;;;;;;4800384;29;20301;-77
2022/10/05 03:21:10;;;;;;;10.57;7.07;;;5.30;99.90;;;;;;4806380;29;20247;-78
2022/10/05 03:23:54;;;;;;;8.70;6.73;;;5.30;99.90;;;;;;4806631;29;20201;-78
2022/10/05 03:26:34;;;;;;;9.73;7.70;;;5.30;99.90;;;;;;4806216;29;20223;-77
2022/10/05 03:29:20;;;;;;;10.10;7.63;;;5.30;99.90;;;;;;4805411;29;20212;-77
2022/10/05 03:31:55;;;;;;;10.23;7.47;;;5.30;99.90;;;;;;4805949;29;20221;-77
2022/10/05 03:34:33;;;;;;;11.10;7.50;;;5.20;99.90;;;;;;4806019;29;20204;-78
2022/10/05 03:37:05;;;;;;;9.73;7.00;;;5.20;99.90;;;;;;4805451;29;20217;-78
2022/10/05 03:39:40;;;;;;;9.70;7.83;;;5.10;99.90;;;;;;4805674;29;20209;-76
2022/10/05 03:42:16;;;;;;;9.23;7.23;;;5.10;99.90;;;;;;4805813;29;20224;-78
2022/10/05 03:44:55;;;;;;;10.43;7.40;;;5.10;99.90;;;;;;4804878;29;20229;-78
2022/10/05 03:47:35;;;;;;;9.80;6.77;;;5.10;99.90;;;;;;4805984;29;20205;-75
2022/10/05 03:50:22;;;;;;;9.03;6.80;;;5.10;99.90;;;;;;4821040;29;20211;-77
2022/10/05 03:52:56;;;;;;;7.57;6.60;;;5.00;99.90;;;;;;4815512;29;20227;-77
2022/10/05 03:55:31;;;;;;;10.47;6.90;;;5.00;99.90;;;;;;4807343;29;20260;-78
2022/10/05 03:58:06;;;;;;;8.60;6.63;;;5.00;99.90;;;;;;4805941;29;20731;-78
2022/10/05 04:00:36;;;;;;;10.23;7.00;;;5.00;99.90;;;;;;4805284;29;20208;-77
2022/10/05 04:03:11;;;;;;;13.77;8.33;;;5.00;99.90;;;;;;4805119;29;20270;-78
2022/10/05 04:05:47;;;;;;;12.20;8.87;;;5.20;99.90;;;;;;4805733;29;20201;-77
2022/10/05 04:08:24;;;;;;;9.20;7.90;;;5.20;99.90;;;;;;4787574;30;20206;-77
2022/10/05 04:10:54;;;;;;;12.17;8.93;;;5.20;99.90;;;;;;4793702;29;20227;-77
2022/10/05 04:13:31;;;;;;;14.97;10.17;;;5.20;99.90;;;;;;4805144;29;20221;-77
2022/10/05 04:16:03;;;;;;;12.17;10.23;;;5.20;99.90;;;;;;4805044;29;20204;-76
2022/10/05 04:18:39;;;;;;;13.20;9.93;;;5.30;99.90;;;;;;4805373;29;20247;-77
2022/10/05 04:21:13;;;;;;;12.30;8.53;;;5.40;99.90;;;;;;4805579;29;20202;-77
2022/10/05 04:23:49;;;;;;;9.30;7.90;;;5.30;99.90;;;;;;4805055;29;20213;-77
2022/10/05 04:26:24;;;;;;;8.50;7.53;;;5.20;99.90;;;;;;4804542;29;20213;-78
2022/10/05 04:28:56;;;;;;;8.90;7.20;;;5.20;99.90;;;;;;4805302;29;20200;-78
2022/10/05 04:31:47;;;;;;;11.23;7.90;;;5.20;99.90;;;;;;4805438;29;20212;-79
2022/10/05 04:34:43;;;;;;;11.00;7.70;;;5.10;99.90;;;;;;4804381;29;20274;-78
2022/10/05 04:37:21;;;;;;;8.90;7.07;;;5.10;99.90;;;;;;4812189;29;20209;-77
2022/10/05 04:40:03;;;;;;;13.50;8.23;;;5.00;99.90;;;;;;4823947;29;20204;-76
2022/10/05 04:42:36;;;;;;;8.80;7.57;;;5.00;99.90;;;;;;4823470;29;20276;-76
2022/10/05 04:45:14;;;;;;;8.70;7.50;;;5.00;99.90;;;;;;4803928;29;20251;-76
2022/10/05 04:48:18;;;;;;;11.20;7.77;;;4.90;99.90;;;;;;4805117;29;20204;-75
2022/10/05 04:51:00;;;;;;;9.67;7.27;;;4.90;99.90;;;;;;4800326;29;20221;-77
2022/10/05 04:53:39;;;;;;;11.53;7.43;;;4.90;99.90;;;;;;4804765;29;20299;-77
2022/10/05 04:56:16;;;;;;;11.20;7.70;;;4.90;99.90;;;;;;4805306;29;20264;-78
2022/10/05 04:59:01;;;;;;;8.37;7.07;;;4.90;99.90;;;;;;4804863;29;20224;-76
2022/10/05 05:01:48;;;;;;;9.53;6.77;;;4.80;99.90;;;;;;4805133;29;20212;-80
2022/10/05 05:04:32;;;;;;;9.27;6.17;;;4.80;99.90;;;;;;4804587;29;20216;-79
2022/10/05 05:07:14;;;;;;;7.50;6.47;;;4.70;99.90;;;;;;4804916;29;20223;-78
2022/10/05 05:10:07;;;;;;;10.17;6.97;;;4.70;99.90;;;;;;4804633;29;20680;-78
2022/10/05 05:12:50;;;;;;;8.83;6.53;;;4.70;99.90;;;;;;4804676;29;20233;-78
2022/10/05 05:15:33;;;;;;;9.40;7.10;;;4.70;99.90;;;;;;4805223;29;20212;-79
2022/10/05 05:18:40;;;;;;;11.47;6.80;;;4.70;99.90;;;;;;4805262;29;20250;-77
2022/10/05 05:21:18;;;;;;;9.03;6.53;;;4.70;99.90;;;;;;4804289;29;20217;-78
2022/10/05 05:23:53;;;;;;;7.37;6.20;;;4.70;99.90;;;;;;4804231;29;20201;-76
2022/10/05 05:26:29;;;;;;;10.80;7.17;;;4.80;99.90;;;;;;4804983;29;20248;-76
2022/10/05 05:29:14;;;;;;;10.40;6.40;;;4.80;99.90;;;;;;4804793;29;20227;-76
2022/10/05 05:31:47;;;;;;;10.23;7.30;;;4.80;99.90;;;;;;4803956;29;20259;-78
2022/10/05 05:34:34;;;;;;;10.63;7.40;;;4.80;99.90;;;;;;4804980;29;20235;-78
2022/10/05 05:37:12;;;;;;;11.47;7.03;;;4.80;99.90;;;;;;4804611;29;20655;-73
2022/10/05 05:39:49;;;;;;;9.30;7.10;;;4.90;99.90;;;;;;4806017;29;20727;-73
2022/10/05 05:42:34;;;;;;;8.77;7.03;;;4.90;99.90;;;;;;4808238;29;20330;-75
2022/10/05 05:45:14;;;;;;;8.00;7.07;;;5.00;99.90;;;;;;4808243;29;20232;-77
2022/10/05 05:47:50;;;;;;;8.63;7.33;;;5.00;99.90;;;;;;4807485;29;20220;-77
2022/10/05 05:50:39;;;;;;;9.20;7.23;;;5.00;99.90;;;;;;4806766;29;20220;-78
2022/10/05 05:53:16;;;;;;;12.17;7.50;;;5.10;99.90;;;;;;4807470;29;20221;-77
2022/10/05 05:55:48;;;;;;;10.10;8.07;;;5.10;99.90;;;;;;4807172;29;20241;-77
2022/10/05 05:58:23;;;;;;;8.90;7.10;;;5.10;99.90;;;;;;4808227;29;20231;-78
2022/10/05 06:00:58;;;;;;;9.63;8.00;;;5.20;99.90;;;;;;4808104;29;20686;-78
2022/10/05 06:03:34;;;;;;;12.27;7.43;;;5.20;99.90;;;;;;4807799;29;20217;-78
2022/10/05 06:06:06;;;;;;;9.67;8.13;;;5.20;99.90;;;;;;4807398;29;20224;-77
2022/10/05 06:08:39;;;;;;;11.10;8.10;;;5.30;99.90;;;;;;4807533;29;20207;-79
2022/10/05 06:11:21;;;;;;;11.23;7.33;;;5.40;99.90;;;;;;4808612;29;20586;-77
2022/10/05 06:13:55;;;;;;;7.77;6.77;;;5.40;99.90;;;;;;4808487;29;20189;-78
2022/10/05 06:16:30;;;;;;;9.67;6.83;;;5.50;99.90;;;;;;4807528;29;20246;-76
2022/10/05 06:19:04;;;;;;;9.93;5.73;;;5.60;99.90;;;;;;4807592;29;20232;-79
2022/10/05 06:21:39;;;;;;;10.13;6.03;;;5.60;99.90;;;;;;4807794;29;20217;-77
2022/10/05 06:24:16;;;;;;;7.43;5.97;;;5.70;99.90;;;;;;4807444;29;20249;-77
2022/10/05 06:27:24;;;;;;;8.00;5.07;;;5.70;99.90;;;;;;4806165;29;20213;-79
2022/10/05 06:30:04;;;;;;;7.83;5.53;;;5.80;99.90;;;;;;4816366;29;20220;-78
2022/10/05 06:32:40;;;;;;;6.70;4.87;;;5.90;99.90;;;;;;4819792;29;20243;-78
2022/10/05 06:35:16;;;;;;;9.30;5.63;;;6.00;99.90;;;;;;4807482;29;20211;-77
2022/10/05 06:38:01;;;;;;;8.10;5.70;;;6.10;99.90;;;;;;4806760;29;20698;-79
2022/10/05 06:40:42;;;;;;;8.07;5.57;;;6.30;99.90;;;;;;4805862;29;20228;-77
2022/10/05 06:43:31;;;;;;;6.30;5.27;;;6.30;99.90;;;;;;4806008;29;20571;-77
2022/10/05 06:46:14;;;;;;;7.33;5.20;;;6.40;99.90;;;;;;4807203;29;20205;-79
2022/10/05 06:48:54;;;;;;;7.43;5.00;;;6.60;99.90;;;;;;4807263;29;20208;-72
2022/10/05 06:51:33;;;;;;;8.73;4.93;;;6.70;99.90;;;;;;4807042;29;20209;-77
2022/10/05 06:54:08;;;;;;;6.47;5.10;;;6.90;99.90;;;;;;4806508;29;20236;-78
2022/10/05 06:56:45;;;;;;;6.33;4.93;;;7.00;99.90;;;;;;4806987;29;20241;-78
2022/10/05 06:59:23;;;;;;;5.63;4.50;;;7.10;99.90;;;;;;4806165;29;20240;-77
2022/10/05 07:02:01;;;;;;;5.63;4.40;;;7.30;99.90;;;;;;4806887;29;20209;-77
2022/10/05 07:04:59;;;;;;;6.97;4.20;;;7.50;99.90;;;;;;4806608;29;20699;-76
2022/10/05 07:07:36;;;;;;;6.83;4.30;;;7.60;99.90;;;;;;4805898;29;20228;-76
2022/10/05 07:10:19;;;;;;;5.60;4.23;;;7.80;99.90;;;;;;4806778;29;20565;-77
2022/10/05 07:13:04;;;;;;;7.50;3.40;;;8.00;99.90;;;;;;4806655;29;20599;-76
2022/10/05 07:15:52;;;;;;;5.20;3.33;;;8.10;99.90;;;;;;4806018;29;20730;-77
2022/10/05 07:18:50;;;;;;;6.43;3.43;;;8.30;99.90;;;;;;4806901;29;20247;-77
2022/10/05 07:21:30;;;;;;;5.90;3.27;;;8.50;99.90;;;;;;4807231;29;20284;-78
2022/10/05 07:24:04;;;;;;;5.33;2.90;;;8.70;99.90;;;;;;4806165;29;20217;-78
2022/10/05 07:26:42;;;;;;;6.20;2.70;;;8.90;99.90;;;;;;4806624;29;20216;-76
2022/10/05 07:29:22;;;;;;;3.83;2.73;;;9.10;99.90;;;;;;4806141;29;20222;-77
2022/10/05 07:32:01;;;;;;;3.30;2.63;;;9.40;99.90;;;;;;4807153;29;20204;-77
2022/10/05 07:34:44;;;;;;;4.10;2.47;;;9.70;99.90;;;;;;4805475;29;20265;-76
2022/10/05 07:40:09;;;;;;;2.50;2.10;;;10.40;99.90;;;;;;4806105;29;20249;-77
2022/10/05 07:42:51;;;;;;;3.20;2.10;;;11.10;99.90;;;;;;4804032;29;20218;-74
2022/10/05 07:45:29;;;;;;;3.17;2.03;;;12.40;99.90;;;;;;4805773;29;20320;-76
2022/10/05 07:48:06;;;;;;;4.80;2.00;;;14.40;99.90;;;;;;4805829;29;20223;-75
2022/10/05 07:50:43;;;;;;;2.70;1.60;;;16.20;99.90;;;;;;4805076;29;20224;-76
2022/10/05 07:53:19;;;;;;;2.23;1.70;;;17.50;99.90;;;;;;4806182;29;20276;-78
2022/10/05 07:55:52;;;;;;;1.67;1.57;;;19.10;99.90;;;;;;4806272;29;20236;-76
2022/10/05 07:58:26;;;;;;;3.03;1.67;;;19.70;99.90;;;;;;4806213;29;20221;-79
